EZY212 LEPA-EDDM
Flight info
| Callsign | EZY212 |
|---|---|
| Flight time | N/A |
| Altitude | 36000 |
| Route | MEROS DCT LAPIT DCT CHELY/N0447F320 DCT LUMAS DCT UNANA/N0447F300 DCT STP DCT RAPED DCT PIGOS DCT EKSID DCT NOSTA DCT NOPMU DCT VAKON DCT TAGIP DCT GUNGO DCT TISAX DCT IVKAL T102 NINUR T101 BETOS BETOS1B |
| Aircraft | A320/M-SDE3FGHIRWY/LB1 |
Departure
| Time | N/A |
|---|---|
| Airport | Palma de Mallorca Airport (LEPA) |
Arrival
| Time | 2026-05-05 11:39 |
|---|---|
| Airport | Munich Airport (EDDM) |
| Time | Latitude | Longitude | Altitude | Speed | Heading |
|---|---|---|---|---|---|
| 2026-05-05 11:25 | 48.22310 | 11.61300 | 7239 ft | 335 kts | 69° |
| 2026-05-05 11:25 | 48.23143 | 11.64527 | 6333 ft | 330 kts | 69° |
| 2026-05-05 11:26 | 48.23949 | 11.67709 | 5841 ft | 326 kts | 69° |
| 2026-05-05 11:26 | 48.24765 | 11.70941 | 5853 ft | 330 kts | 69° |
| 2026-05-05 11:26 | 48.25568 | 11.74124 | 5860 ft | 330 kts | 69° |
| 2026-05-05 11:26 | 48.26387 | 11.77376 | 5865 ft | 330 kts | 70° |
| 2026-05-05 11:27 | 48.27191 | 11.80563 | 5865 ft | 330 kts | 69° |
| 2026-05-05 11:27 | 48.28007 | 11.83804 | 5865 ft | 330 kts | 70° |
| 2026-05-05 11:27 | 48.28809 | 11.86991 | 5860 ft | 317 kts | 69° |
| 2026-05-05 11:27 | 48.29559 | 11.89962 | 5856 ft | 294 kts | 69° |
| 2026-05-05 11:28 | 48.30245 | 11.92682 | 5857 ft | 263 kts | 69° |
| 2026-05-05 11:28 | 48.30875 | 11.95176 | 5857 ft | 247 kts | 70° |
| 2026-05-05 11:28 | 48.31482 | 11.97574 | 5853 ft | 244 kts | 70° |
| 2026-05-05 11:28 | 48.32076 | 11.99924 | 5857 ft | 243 kts | 69° |
| 2026-05-05 11:29 | 48.32678 | 12.02306 | 5853 ft | 243 kts | 70° |
| 2026-05-05 11:29 | 48.33275 | 12.04664 | 5626 ft | 241 kts | 69° |
| 2026-05-05 11:29 | 48.33874 | 12.07038 | 5307 ft | 241 kts | 69° |
| 2026-05-05 11:29 | 48.34459 | 12.09359 | 5004 ft | 239 kts | 69° |
| 2026-05-05 11:30 | 48.35032 | 12.11636 | 4831 ft | 225 kts | 70° |
| 2026-05-05 11:30 | 48.35582 | 12.13769 | 4703 ft | 213 kts | 69° |
| 2026-05-05 11:30 | 48.36100 | 12.15767 | 4572 ft | 197 kts | 70° |
| 2026-05-05 11:30 | 48.36425 | 12.17020 | 4335 ft | 192 kts | 69° |
| 2026-05-05 11:31 | 48.36909 | 12.18886 | 3951 ft | 190 kts | 70° |
| 2026-05-05 11:31 | 48.37391 | 12.20754 | 3913 ft | 191 kts | 70° |
| 2026-05-05 11:31 | 48.37876 | 12.22632 | 3918 ft | 193 kts | 69° |
| 2026-05-05 11:31 | 48.38655 | 12.24251 | 3921 ft | 194 kts | 36° |
| 2026-05-05 11:32 | 48.39940 | 12.24798 | 3920 ft | 196 kts | 356° |
| 2026-05-05 11:32 | 48.41163 | 12.24035 | 3918 ft | 196 kts | 317° |
| 2026-05-05 11:32 | 48.41917 | 12.22341 | 3921 ft | 195 kts | 295° |
| 2026-05-05 11:32 | 48.42491 | 12.20492 | 3920 ft | 195 kts | 294° |
| 2026-05-05 11:33 | 48.43069 | 12.18647 | 3940 ft | 195 kts | 295° |
| 2026-05-05 11:33 | 48.43646 | 12.16812 | 3943 ft | 195 kts | 295° |
| 2026-05-05 11:33 | 48.44209 | 12.14949 | 3948 ft | 194 kts | 288° |
| 2026-05-05 11:33 | 48.44265 | 12.12959 | 3947 ft | 192 kts | 256° |
| 2026-05-05 11:34 | 48.43623 | 12.11207 | 3952 ft | 192 kts | 229° |
| 2026-05-05 11:34 | 48.42744 | 12.09719 | 3956 ft | 192 kts | 228° |
| 2026-05-05 11:34 | 48.41859 | 12.08225 | 3954 ft | 192 kts | 228° |
| 2026-05-05 11:34 | 48.40975 | 12.06733 | 3954 ft | 187 kts | 228° |
| 2026-05-05 11:35 | 48.40115 | 12.05286 | 3956 ft | 184 kts | 228° |
| 2026-05-05 11:35 | 48.39272 | 12.03866 | 3957 ft | 177 kts | 228° |
| 2026-05-05 11:35 | 48.38567 | 12.02448 | 3760 ft | 167 kts | 240° |
| 2026-05-05 11:35 | 48.38180 | 12.00803 | 3476 ft | 166 kts | 259° |
| 2026-05-05 11:36 | 48.37997 | 11.99079 | 3473 ft | 169 kts | 262° |
| 2026-05-05 11:36 | 48.37844 | 11.97311 | 3439 ft | 171 kts | 263° |
| 2026-05-05 11:36 | 48.37704 | 11.95531 | 3253 ft | 170 kts | 263° |
| 2026-05-05 11:36 | 48.37568 | 11.93765 | 3046 ft | 169 kts | 263° |
| 2026-05-05 11:37 | 48.37436 | 11.92018 | 2831 ft | 169 kts | 263° |
| 2026-05-05 11:37 | 48.37304 | 11.90262 | 2608 ft | 168 kts | 263° |
| 2026-05-05 11:37 | 48.37172 | 11.88525 | 2375 ft | 168 kts | 264° |
| 2026-05-05 11:37 | 48.37041 | 11.86789 | 2107 ft | 160 kts | 264° |
| 2026-05-05 11:38 | 48.36920 | 11.85197 | 1901 ft | 150 kts | 264° |
| 2026-05-05 11:38 | 48.36804 | 11.83659 | 1707 ft | 144 kts | 264° |
| 2026-05-05 11:38 | 48.36692 | 11.82194 | 1518 ft | 141 kts | 264° |
| 2026-05-05 11:38 | 48.36586 | 11.80821 | 1466 ft | 113 kts | 262° |
| 2026-05-05 11:39 | 48.36521 | 11.79909 | 1464 ft | 64 kts | 263° |
| 2026-05-05 11:39 | 48.36489 | 11.79499 | 1466 ft | 15 kts | 261° |
| 2026-05-05 11:39 | 48.36474 | 11.79331 | 1470 ft | 21 kts | 264° |
| 2026-05-05 11:39 | 48.36458 | 11.79102 | 1469 ft | 23 kts | 264° |
| 2026-05-05 11:40 | 48.36389 | 11.78885 | 1465 ft | 24 kts | 232° |
| 2026-05-05 11:40 | 48.36282 | 11.78671 | 1460 ft | 27 kts | 236° |
| 2026-05-05 11:40 | 48.36184 | 11.78471 | 1463 ft | 0 kts | 234° |
| 2026-05-05 11:41 | 48.36177 | 11.78457 | 1461 ft | 8 kts | 236° |
| 2026-05-05 11:41 | 48.36124 | 11.78302 | 1466 ft | 20 kts | 257° |
| 2026-05-05 11:41 | 48.36107 | 11.78086 | 1468 ft | 22 kts | 264° |
| 2026-05-05 11:41 | 48.36088 | 11.77840 | 1462 ft | 24 kts | 262° |
| 2026-05-05 11:42 | 48.36041 | 11.77664 | 1463 ft | 14 kts | 195° |
| 2026-05-05 11:42 | 48.35959 | 11.77679 | 1466 ft | 12 kts | 176° |
| 2026-05-05 11:42 | 48.35868 | 11.77691 | 1464 ft | 14 kts | 173° |
| 2026-05-05 11:42 | 48.35765 | 11.77711 | 1459 ft | 16 kts | 172° |
| 2026-05-05 11:43 | 48.35647 | 11.77727 | 1458 ft | 18 kts | 172° |
| 2026-05-05 11:43 | 48.35510 | 11.77751 | 1466 ft | 21 kts | 173° |
| 2026-05-05 11:43 | 48.35354 | 11.77786 | 1462 ft | 23 kts | 153° |
| 2026-05-05 11:43 | 48.35347 | 11.77944 | 1462 ft | 15 kts | 84° |
| 2026-05-05 11:44 | 48.35353 | 11.78111 | 1466 ft | 17 kts | 104° |
| 2026-05-05 11:44 | 48.35259 | 11.78173 | 1461 ft | 15 kts | 173° |
| 2026-05-05 11:44 | 48.35163 | 11.78190 | 1466 ft | 15 kts | 174° |
| 2026-05-05 11:44 | 48.35064 | 11.78212 | 1462 ft | 11 kts | 156° |
| 2026-05-05 11:45 | 48.35044 | 11.78287 | 1466 ft | 8 kts | 81° |
| 2026-05-05 11:45 | 48.35051 | 11.78364 | 1466 ft | 4 kts | 81° |
| 2026-05-05 11:45 | 48.35052 | 11.78374 | 1464 ft | 0 kts | 81° |